CES6331 ZSJN-ZBAD
Flight info
| Callsign | CES6331 |
|---|---|
| Flight time | 0h 35m |
| Altitude | 15700 |
| Route | TUMLO W157 AVBOX |
| Aircraft | A21N/M-SDE2E3FGHIJ1RWXY/LB1D1 |
Departure
| Time | 2026-04-24 15:21 |
|---|---|
| Airport | Jinan Yaoqiang International Airport (ZSJN) |
Arrival
| Time | 2026-04-24 15:56 |
|---|---|
| Airport | Beijing Daxing International Airport (ZBAD) |
| Time | Latitude | Longitude | Altitude | Speed | Heading |
|---|---|---|---|---|---|
| 2026-04-24 15:14 | 36.85141 | 117.21268 | 84 ft | 16 kts | 0° |
| 2026-04-24 15:14 | 36.85257 | 117.21270 | 84 ft | 17 kts | 0° |
| 2026-04-24 15:14 | 36.85337 | 117.21270 | 84 ft | 17 kts | 359° |
| 2026-04-24 15:15 | 36.85498 | 117.21268 | 84 ft | 17 kts | 359° |
| 2026-04-24 15:15 | 36.85621 | 117.21271 | 84 ft | 17 kts | 360° |
| 2026-04-24 15:15 | 36.85737 | 117.21300 | 84 ft | 14 kts | 55° |
| 2026-04-24 15:15 | 36.85816 | 117.21368 | 84 ft | 14 kts | 2° |
| 2026-04-24 15:16 | 36.85922 | 117.21373 | 84 ft | 15 kts | 1° |
| 2026-04-24 15:16 | 36.86034 | 117.21372 | 84 ft | 16 kts | 359° |
| 2026-04-24 15:16 | 36.86151 | 117.21371 | 84 ft | 17 kts | 0° |
| 2026-04-24 15:16 | 36.86272 | 117.21373 | 84 ft | 17 kts | 359° |
| 2026-04-24 15:17 | 36.86399 | 117.21371 | 84 ft | 18 kts | 359° |
| 2026-04-24 15:17 | 36.86527 | 117.21369 | 84 ft | 18 kts | 360° |
| 2026-04-24 15:17 | 36.86659 | 117.21371 | 84 ft | 19 kts | 0° |
| 2026-04-24 15:17 | 36.86794 | 117.21371 | 84 ft | 19 kts | 359° |
| 2026-04-24 15:18 | 36.86931 | 117.21370 | 84 ft | 19 kts | 359° |
| 2026-04-24 15:18 | 36.87069 | 117.21370 | 84 ft | 19 kts | 0° |
| 2026-04-24 15:18 | 36.87207 | 117.21371 | 84 ft | 20 kts | 360° |
| 2026-04-24 15:18 | 36.87331 | 117.21370 | 84 ft | 4 kts | 7° |
| 2026-04-24 15:19 | 36.87339 | 117.21407 | 84 ft | 6 kts | 87° |
| 2026-04-24 15:19 | 36.87341 | 117.21465 | 84 ft | 7 kts | 88° |
| 2026-04-24 15:19 | 36.87342 | 117.21537 | 84 ft | 8 kts | 97° |
| 2026-04-24 15:19 | 36.87301 | 117.21590 | 84 ft | 9 kts | 162° |
| 2026-04-24 15:20 | 36.87217 | 117.21596 | 84 ft | 26 kts | 180° |
| 2026-04-24 15:20 | 36.86753 | 117.21590 | 84 ft | 103 kts | 177° |
| 2026-04-24 15:20 | 36.85815 | 117.21583 | 101 ft | 161 kts | 181° |
| 2026-04-24 15:20 | 36.84634 | 117.21549 | 534 ft | 177 kts | 182° |
| 2026-04-24 15:21 | 36.83385 | 117.21541 | 1124 ft | 185 kts | 183° |
| 2026-04-24 15:21 | 36.82079 | 117.21536 | 1852 ft | 192 kts | 185° |
| 2026-04-24 15:21 | 36.80796 | 117.21204 | 2629 ft | 193 kts | 213° |
| 2026-04-24 15:21 | 36.80069 | 117.19823 | 3355 ft | 201 kts | 253° |
| 2026-04-24 15:22 | 36.80073 | 117.18084 | 4169 ft | 208 kts | 278° |
| 2026-04-24 15:22 | 36.80441 | 117.16331 | 4873 ft | 216 kts | 280° |
| 2026-04-24 15:22 | 36.80819 | 117.14426 | 5248 ft | 239 kts | 279° |
| 2026-04-24 15:23 | 36.81598 | 117.09984 | 6112 ft | 284 kts | 279° |
| 2026-04-24 15:23 | 36.82165 | 117.06571 | 6687 ft | 313 kts | 280° |
| 2026-04-24 15:24 | 36.90798 | 116.97701 | 8655 ft | 370 kts | 330° |
| 2026-04-24 15:25 | 36.94569 | 116.95069 | 9358 ft | 374 kts | 330° |
| 2026-04-24 15:25 | 36.99906 | 116.91290 | 10349 ft | 379 kts | 330° |
| 2026-04-24 15:26 | 37.06846 | 116.86347 | 11631 ft | 385 kts | 330° |
| 2026-04-24 15:27 | 37.14050 | 116.81665 | 12922 ft | 391 kts | 340° |
| 2026-04-24 15:27 | 37.20273 | 116.79710 | 13926 ft | 398 kts | 348° |
| 2026-04-24 15:28 | 37.31966 | 116.75542 | 15640 ft | 404 kts | 343° |
| 2026-04-24 15:29 | 37.38235 | 116.73169 | 15668 ft | 402 kts | 343° |
| 2026-04-24 15:30 | 37.46323 | 116.70105 | 15664 ft | 403 kts | 343° |
| 2026-04-24 15:31 | 37.47210 | 116.69768 | 15664 ft | 403 kts | 343° |
| 2026-04-24 15:32 | 37.67575 | 116.62021 | 15376 ft | 402 kts | 343° |
| 2026-04-24 15:33 | 37.78302 | 116.57924 | 14575 ft | 400 kts | 343° |
| 2026-04-24 15:33 | 37.86324 | 116.54880 | 13962 ft | 398 kts | 346° |
| 2026-04-24 15:34 | 37.91798 | 116.53646 | 13563 ft | 398 kts | 351° |
| 2026-04-24 15:35 | 38.00020 | 116.51984 | 12961 ft | 396 kts | 351° |
| 2026-04-24 15:35 | 38.05451 | 116.50823 | 12550 ft | 394 kts | 350° |
| 2026-04-24 15:35 | 38.08170 | 116.50235 | 12347 ft | 393 kts | 350° |
| 2026-04-24 15:36 | 38.10854 | 116.49651 | 12154 ft | 392 kts | 350° |
| 2026-04-24 15:36 | 38.16266 | 116.48470 | 11807 ft | 390 kts | 350° |
| 2026-04-24 15:36 | 38.18946 | 116.47883 | 11801 ft | 391 kts | 349° |
| 2026-04-24 15:37 | 38.21624 | 116.47296 | 11796 ft | 391 kts | 350° |
| 2026-04-24 15:37 | 38.24340 | 116.46701 | 11794 ft | 391 kts | 350° |
| 2026-04-24 15:37 | 38.27002 | 116.46117 | 11788 ft | 391 kts | 349° |
| 2026-04-24 15:37 | 38.29717 | 116.45521 | 11653 ft | 386 kts | 349° |
| 2026-04-24 15:38 | 38.32330 | 116.44948 | 11374 ft | 375 kts | 349° |
| 2026-04-24 15:38 | 38.34867 | 116.44392 | 11098 ft | 365 kts | 349° |
| 2026-04-24 15:38 | 38.37358 | 116.43845 | 10819 ft | 355 kts | 349° |
| 2026-04-24 15:38 | 38.39765 | 116.43317 | 10543 ft | 346 kts | 349° |
| 2026-04-24 15:39 | 38.42110 | 116.42800 | 10268 ft | 337 kts | 349° |
| 2026-04-24 15:39 | 38.44391 | 116.42298 | 9991 ft | 329 kts | 349° |
| 2026-04-24 15:39 | 38.46660 | 116.41798 | 9712 ft | 322 kts | 349° |
| 2026-04-24 15:39 | 38.48844 | 116.41316 | 9436 ft | 315 kts | 349° |
| 2026-04-24 15:40 | 38.50993 | 116.40842 | 9164 ft | 313 kts | 349° |
| 2026-04-24 15:40 | 38.53126 | 116.40369 | 8893 ft | 312 kts | 349° |
| 2026-04-24 15:40 | 38.55292 | 116.39888 | 8617 ft | 310 kts | 349° |
| 2026-04-24 15:40 | 38.57416 | 116.39419 | 8342 ft | 309 kts | 348° |
| 2026-04-24 15:41 | 38.59528 | 116.38952 | 8070 ft | 307 kts | 348° |
| 2026-04-24 15:41 | 38.61634 | 116.38503 | 7797 ft | 306 kts | 352° |
| 2026-04-24 15:41 | 38.63774 | 116.38502 | 7521 ft | 306 kts | 5° |
| 2026-04-24 15:41 | 38.65873 | 116.38824 | 7250 ft | 301 kts | 5° |
| 2026-04-24 15:42 | 38.67947 | 116.39111 | 6973 ft | 294 kts | 4° |
| 2026-04-24 15:42 | 38.69949 | 116.39381 | 6702 ft | 288 kts | 4° |
| 2026-04-24 15:42 | 38.71956 | 116.39655 | 6425 ft | 282 kts | 5° |
| 2026-04-24 15:42 | 38.73880 | 116.39919 | 6151 ft | 277 kts | 5° |
| 2026-04-24 15:43 | 38.75775 | 116.40183 | 5876 ft | 272 kts | 5° |
| 2026-04-24 15:43 | 38.77657 | 116.40446 | 5599 ft | 267 kts | 5° |
| 2026-04-24 15:43 | 38.79488 | 116.40703 | 5329 ft | 262 kts | 4° |
| 2026-04-24 15:43 | 38.81297 | 116.40957 | 5097 ft | 256 kts | 5° |
| 2026-04-24 15:44 | 38.83053 | 116.41203 | 4872 ft | 250 kts | 4° |
| 2026-04-24 15:44 | 38.84784 | 116.41447 | 4641 ft | 245 kts | 4° |
| 2026-04-24 15:44 | 38.86470 | 116.41685 | 4412 ft | 240 kts | 4° |
| 2026-04-24 15:44 | 38.88137 | 116.41919 | 4193 ft | 241 kts | 4° |
| 2026-04-24 15:45 | 38.89812 | 116.42153 | 3967 ft | 240 kts | 4° |
| 2026-04-24 15:45 | 38.91471 | 116.42387 | 3883 ft | 239 kts | 4° |
| 2026-04-24 15:45 | 38.93133 | 116.42620 | 3878 ft | 240 kts | 4° |
| 2026-04-24 15:45 | 38.94794 | 116.42854 | 3877 ft | 240 kts | 4° |
| 2026-04-24 15:46 | 38.96463 | 116.43089 | 3874 ft | 239 kts | 4° |
| 2026-04-24 15:46 | 38.98117 | 116.43322 | 3871 ft | 239 kts | 4° |
| 2026-04-24 15:46 | 38.99789 | 116.43558 | 3871 ft | 239 kts | 4° |
| 2026-04-24 15:46 | 39.01449 | 116.43793 | 3872 ft | 239 kts | 4° |
| 2026-04-24 15:47 | 39.03106 | 116.44028 | 3874 ft | 239 kts | 4° |
| 2026-04-24 15:47 | 39.04768 | 116.44263 | 3871 ft | 239 kts | 4° |
| 2026-04-24 15:47 | 39.06429 | 116.44514 | 3871 ft | 240 kts | 7° |
| 2026-04-24 15:47 | 39.08067 | 116.44925 | 3872 ft | 240 kts | 9° |
| 2026-04-24 15:48 | 39.09725 | 116.45184 | 3869 ft | 239 kts | 359° |
| 2026-04-24 15:48 | 39.11395 | 116.45107 | 3870 ft | 238 kts | 353° |
| 2026-04-24 15:48 | 39.13050 | 116.44882 | 3872 ft | 237 kts | 351° |
| 2026-04-24 15:48 | 39.14691 | 116.44623 | 3868 ft | 234 kts | 351° |
| 2026-04-24 15:49 | 39.16256 | 116.44370 | 3856 ft | 218 kts | 351° |
| 2026-04-24 15:49 | 39.17708 | 116.44137 | 3930 ft | 202 kts | 350° |
| 2026-04-24 15:49 | 39.19097 | 116.43912 | 3895 ft | 200 kts | 351° |
| 2026-04-24 15:49 | 39.20491 | 116.43686 | 3880 ft | 200 kts | 350° |
| 2026-04-24 15:50 | 39.21880 | 116.43463 | 3878 ft | 200 kts | 351° |
| 2026-04-24 15:50 | 39.23260 | 116.43243 | 3876 ft | 199 kts | 351° |
| 2026-04-24 15:50 | 39.24649 | 116.43022 | 3873 ft | 199 kts | 350° |
| 2026-04-24 15:50 | 39.26017 | 116.42806 | 3875 ft | 199 kts | 351° |
| 2026-04-24 15:51 | 39.27401 | 116.42587 | 3874 ft | 199 kts | 350° |
| 2026-04-24 15:51 | 39.28776 | 116.42370 | 3865 ft | 195 kts | 350° |
| 2026-04-24 15:51 | 39.30121 | 116.42158 | 3616 ft | 193 kts | 351° |
| 2026-04-24 15:51 | 39.31455 | 116.41946 | 3357 ft | 191 kts | 351° |
| 2026-04-24 15:52 | 39.32759 | 116.41740 | 3092 ft | 183 kts | 351° |
| 2026-04-24 15:52 | 39.33988 | 116.41547 | 2842 ft | 174 kts | 351° |
| 2026-04-24 15:52 | 39.35189 | 116.41356 | 2611 ft | 171 kts | 351° |
| 2026-04-24 15:52 | 39.36371 | 116.41167 | 2402 ft | 171 kts | 351° |
| 2026-04-24 15:53 | 39.37557 | 116.40978 | 2188 ft | 170 kts | 351° |
| 2026-04-24 15:53 | 39.38734 | 116.40792 | 1970 ft | 170 kts | 351° |
| 2026-04-24 15:53 | 39.39890 | 116.40610 | 1743 ft | 164 kts | 351° |
| 2026-04-24 15:53 | 39.40978 | 116.40440 | 1513 ft | 152 kts | 351° |
| 2026-04-24 15:54 | 39.42036 | 116.40270 | 1320 ft | 151 kts | 351° |
| 2026-04-24 15:54 | 39.43073 | 116.40105 | 1129 ft | 150 kts | 351° |
| 2026-04-24 15:54 | 39.44110 | 116.39940 | 931 ft | 149 kts | 352° |
| 2026-04-24 15:54 | 39.45145 | 116.39775 | 733 ft | 148 kts | 352° |
| 2026-04-24 15:55 | 39.46177 | 116.39617 | 531 ft | 148 kts | 352° |
| 2026-04-24 15:55 | 39.47191 | 116.39452 | 327 ft | 147 kts | 352° |
| 2026-04-24 15:55 | 39.48208 | 116.39284 | 157 ft | 146 kts | 353° |
| 2026-04-24 15:55 | 39.49197 | 116.39134 | 91 ft | 131 kts | 352° |
| 2026-04-24 15:56 | 39.49937 | 116.39015 | 91 ft | 82 kts | 353° |
| 2026-04-24 15:56 | 39.50346 | 116.38947 | 91 ft | 43 kts | 352° |
| 2026-04-24 15:56 | 39.50628 | 116.38948 | 91 ft | 38 kts | 11° |
| 2026-04-24 15:56 | 39.50870 | 116.39055 | 91 ft | 34 kts | 20° |
| 2026-04-24 15:57 | 39.51062 | 116.39149 | 91 ft | 20 kts | 21° |
| 2026-04-24 15:57 | 39.51196 | 116.39162 | 91 ft | 19 kts | 351° |